LFQQ/LIL METAR and TAF weather

Enter ICAO airport designator
Station Type Date Time Source
LFQQ METAR 2020/08/15 10:00 UTC NOAA

LFQQ 151000Z AUTO 14005KT 9999 SCT018/// SCT060/// BKN070/// ///TCU 23/19 Q1015 TEMPO 3000 SHRA BECMG 20010KT


Station Type Date Time Source
LFQQ Decoded METAR 2020/08/15 10:00 UTC NOAA

Lille, France (LFQQ) 50-34N 003-06E 52M
Aug 15, 2020 - 06:00 AM EDT / 2020.08.15 1000 UTC
Wind: from the SE (140 degrees) at 6 MPH (5 KT):0
Visibility: greater than 7 mile(s):0
Sky conditions: mostly cloudy
Weather: Towering cumulus clouds observed
Temperature: 73 F (23 C)
Dew Point: 66 F (19 C)
Relative Humidity: 78%
Pressure (altimeter): 29.97 in. Hg (1015 hPa)
ob: LFQQ 151000Z AUTO 14005KT 9999 SCT018/// SCT060/// BKN070/// ///TCU 23/19 Q1015 TEMPO 3000 SHRA BECMG 20010KT
cycle: 10

Station Type Date Time Source
LFQQ TAF 2020/08/15 09:21 UTC NOAA

TAF
AMD LFQQ 150913Z 1509/1612 20010KT 8000 BKN025
TEMPO 1509/1512 3000 SHRA BKN025TCU
BECMG 1518/1520 34010KT
BECMG 1600/1603 VRB02KT 0800 FG VV///
BECMG 1606/1608 SCT010
BECMG 1608/1610 BKN020
TEMPO 1610/1612 22010KT 3000 SHRA BKN030TCU

Example: see airport list